Time;durP1;ratioP1;P1;durP2;ratioP2;P2;SDS_P1;SDS_P2;PMS_P1;PMS_P2;Temp;Humidity;BMP_temperature;BMP_pressure;BME280_temperature;BME280_humidity;BME280_pressure;Samples;Min_cycle;Max_cycle;Signal;HPM_P1;HPM_P2
2022/11/12 00:02:20;;;;;;;89.28;45.90;;;6.30;99.90;;;;;;5004394;28;20018;-84
2022/11/12 00:04:46;;;;;;;93.72;46.05;;;6.20;99.90;;;;;;5007803;28;20469;-82
2022/11/12 00:07:12;;;;;;;86.68;43.83;;;6.10;99.90;;;;;;5002827;28;20057;-83
2022/11/12 00:09:37;;;;;;;103.90;51.05;;;6.00;99.90;;;;;;4998649;28;20145;-85
2022/11/12 00:12:03;;;;;;;87.93;46.65;;;6.00;99.90;;;;;;5010225;28;20092;-85
2022/11/12 00:14:29;;;;;;;106.18;53.33;;;5.80;99.90;;;;;;5013360;28;20049;-84
2022/11/12 00:16:55;;;;;;;115.22;61.30;;;5.80;99.90;;;;;;5011959;28;20037;-83
2022/11/12 00:19:21;;;;;;;151.65;80.60;;;5.80;99.90;;;;;;5014185;28;20030;-82
2022/11/12 00:21:47;;;;;;;158.00;86.82;;;5.80;99.90;;;;;;5020884;28;20022;-84
2022/11/12 00:24:12;;;;;;;149.82;81.22;;;5.90;99.90;;;;;;4994922;28;20022;-87
2022/11/12 00:26:38;;;;;;;145.48;80.20;;;5.90;99.90;;;;;;4994354;28;20153;-84
2022/11/12 00:29:04;;;;;;;152.40;80.05;;;5.80;99.90;;;;;;5000144;28;20057;-84
2022/11/12 00:31:29;;;;;;;145.38;77.15;;;5.80;99.90;;;;;;4996396;28;20499;-83
2022/11/12 00:33:55;;;;;;;151.20;78.75;;;5.80;99.90;;;;;;5013630;28;20105;-83
2022/11/12 00:36:21;;;;;;;141.68;77.47;;;5.70;99.90;;;;;;5002160;28;20431;-84
2022/11/12 00:38:47;;;;;;;141.65;75.45;;;5.70;99.90;;;;;;5015289;28;20049;-81
2022/11/12 00:41:12;;;;;;;130.82;74.63;;;5.70;99.90;;;;;;5008099;28;20103;-87
2022/11/12 00:43:38;;;;;;;144.18;76.47;;;5.70;99.90;;;;;;4996340;28;20026;-84
2022/11/12 00:46:04;;;;;;;156.25;75.30;;;5.70;99.90;;;;;;4999176;28;20029;-81
2022/11/12 00:48:32;;;;;;;138.48;74.88;;;5.60;99.90;;;;;;5018732;28;20050;-83
2022/11/12 00:51:00;;;;;;;143.55;76.25;;;5.60;99.90;;;;;;5028915;28;20022;-84
2022/11/12 00:53:26;;;;;;;132.15;69.75;;;5.70;99.90;;;;;;5016661;28;20022;-84
2022/11/12 00:55:51;;;;;;;133.88;69.72;;;5.70;99.90;;;;;;5032562;28;20030;-88
2022/11/12 00:58:17;;;;;;;119.60;63.30;;;5.60;99.90;;;;;;5017938;28;20022;-85
2022/11/12 01:00:43;;;;;;;121.15;63.28;;;5.50;99.90;;;;;;5015252;28;20015;-84
2022/11/12 01:03:08;;;;;;;120.13;61.15;;;5.50;99.90;;;;;;4997419;28;20461;-83
2022/11/12 01:05:34;;;;;;;107.10;58.42;;;5.40;99.90;;;;;;5015247;28;20144;-90
2022/11/12 01:08:00;;;;;;;105.35;53.65;;;5.40;99.90;;;;;;4997025;28;20049;-86
2022/11/12 01:10:25;;;;;;;91.90;48.65;;;5.40;99.90;;;;;;4997916;28;20105;-87
2022/11/12 01:12:51;;;;;;;107.65;49.25;;;5.30;99.90;;;;;;4997704;28;20122;-86
2022/11/12 01:15:17;;;;;;;95.20;48.08;;;5.30;99.90;;;;;;4998498;28;20590;-85
2022/11/12 01:17:42;;;;;;;90.68;46.42;;;5.20;99.90;;;;;;4996042;28;20026;-85
2022/11/12 01:20:08;;;;;;;94.72;50.75;;;5.20;99.90;;;;;;4995753;28;20121;-85
2022/11/12 01:22:34;;;;;;;93.30;49.20;;;5.20;99.90;;;;;;5013054;28;20025;-84
2022/11/12 01:25:00;;;;;;;92.80;45.85;;;5.20;99.90;;;;;;4996074;28;20064;-84
2022/11/12 01:27:25;;;;;;;84.15;45.15;;;5.20;99.90;;;;;;4995469;28;20117;-84
2022/11/12 01:29:51;;;;;;;103.15;48.67;;;5.20;99.90;;;;;;5016676;28;20041;-87
2022/11/12 01:32:17;;;;;;;90.28;47.55;;;5.10;99.90;;;;;;4995543;28;20029;-84
2022/11/12 01:34:42;;;;;;;92.65;48.55;;;5.10;99.90;;;;;;4995311;28;20037;-85
2022/11/12 01:37:08;;;;;;;86.80;48.10;;;5.10;99.90;;;;;;4994924;28;20022;-85
2022/11/12 01:39:33;;;;;;;93.90;47.30;;;5.00;99.90;;;;;;5012423;28;20470;-84
2022/11/12 01:41:59;;;;;;;89.82;47.08;;;5.00;99.90;;;;;;4995347;28;20426;-86
2022/11/12 01:44:30;;;;;;;94.53;47.45;;;5.00;99.90;;;;;;5012880;28;20033;-85
2022/11/12 01:47:17;;;;;;;97.13;49.10;;;5.00;99.90;;;;;;4995334;28;20033;-84
2022/11/12 01:50:06;;;;;;;95.65;48.45;;;4.90;99.90;;;;;;4993068;28;20061;-86
2022/11/12 01:52:48;;;;;;;90.97;45.45;;;4.90;99.90;;;;;;4991077;28;20641;-85
2022/11/12 01:55:18;;;;;;;92.63;45.70;;;4.80;99.90;;;;;;4992450;28;20037;-85
2022/11/12 01:58:03;;;;;;;105.40;52.63;;;4.80;99.90;;;;;;4993393;28;20038;-87
2022/11/12 02:00:29;;;;;;;101.47;56.47;;;4.80;99.90;;;;;;4972415;28;20201;-87
2022/11/12 02:02:58;;;;;;;89.68;47.47;;;4.70;99.90;;;;;;4972272;28;20559;-87
2022/11/12 02:05:25;;;;;;;101.95;52.53;;;4.70;99.90;;;;;;4972303;28;20089;-85
2022/11/12 02:07:51;;;;;;;97.45;51.03;;;4.70;99.90;;;;;;4971667;28;20116;-86
2022/11/12 02:10:19;;;;;;;91.72;51.58;;;4.80;99.90;;;;;;4972177;28;20023;-87
2022/11/12 02:15:29;;;;;;;100.72;50.47;;;4.70;99.90;;;;;;5011194;28;19959;-64
2022/11/12 02:17:55;;;;;;;93.07;49.13;;;4.70;99.90;;;;;;5010662;28;20030;-61
2022/11/12 02:20:20;;;;;;;92.47;50.22;;;4.60;99.90;;;;;;5010791;28;20045;-63
2022/11/12 02:22:46;;;;;;;92.97;49.97;;;4.60;99.90;;;;;;5010799;28;20113;-62
2022/11/12 02:25:15;;;;;;;96.32;50.00;;;4.60;99.90;;;;;;5010773;28;20172;-63
2022/11/12 02:27:42;;;;;;;92.53;51.08;;;4.50;99.90;;;;;;5010126;28;20029;-62
2022/11/12 02:30:08;;;;;;;92.77;50.73;;;4.50;99.90;;;;;;5010742;28;20037;-61
2022/11/12 02:32:33;;;;;;;95.00;50.83;;;4.50;99.90;;;;;;4995237;28;20030;-61
2022/11/12 02:34:59;;;;;;;92.45;50.65;;;4.50;99.90;;;;;;4990731;28;20033;-62
2022/11/12 02:37:24;;;;;;;90.85;49.78;;;4.50;99.90;;;;;;4973251;28;20068;-61
2022/11/12 02:39:50;;;;;;;94.40;50.08;;;4.40;99.90;;;;;;4990685;28;20061;-62
2022/11/12 02:42:16;;;;;;;78.43;43.83;;;4.40;99.90;;;;;;4973117;28;20030;-62
2022/11/12 02:44:42;;;;;;;83.65;45.30;;;4.40;99.90;;;;;;4990747;28;20080;-63
2022/11/12 02:47:07;;;;;;;83.45;45.92;;;4.40;99.90;;;;;;4990635;28;20086;-65
2022/11/12 02:49:33;;;;;;;90.65;47.03;;;4.30;99.90;;;;;;4990440;28;20409;-63
2022/11/12 02:51:59;;;;;;;85.95;46.60;;;4.20;99.90;;;;;;4957116;28;20035;-61
2022/11/12 02:54:24;;;;;;;89.55;48.35;;;4.20;99.90;;;;;;4990205;28;20109;-62
2022/11/12 02:56:50;;;;;;;80.50;44.28;;;4.20;99.90;;;;;;4990407;28;20023;-61
2022/11/12 02:59:15;;;;;;;77.35;45.38;;;4.10;99.90;;;;;;4990390;28;20465;-61
2022/11/12 03:01:41;;;;;;;76.72;43.42;;;4.10;99.90;;;;;;4990394;28;20038;-63
2022/11/12 03:04:07;;;;;;;86.63;45.55;;;4.00;99.90;;;;;;4990756;28;20034;-62
2022/11/12 03:06:32;;;;;;;75.45;42.15;;;4.00;99.90;;;;;;4990320;28;20533;-66
2022/11/12 03:08:58;;;;;;;91.38;46.67;;;3.90;99.90;;;;;;5004524;28;20025;-63
2022/11/12 03:11:24;;;;;;;86.68;47.67;;;3.90;99.90;;;;;;5009849;28;20692;-64
2022/11/12 03:13:49;;;;;;;90.32;49.08;;;3.90;99.90;;;;;;5009917;28;20034;-62
2022/11/12 03:16:15;;;;;;;81.28;45.13;;;4.00;99.90;;;;;;4992280;28;20018;-63
2022/11/12 03:18:41;;;;;;;84.07;46.35;;;4.00;99.90;;;;;;5009826;28;20034;-62
2022/11/12 03:21:06;;;;;;;89.43;46.10;;;3.90;99.90;;;;;;5009811;28;20022;-60
2022/11/12 03:23:32;;;;;;;85.05;45.78;;;3.90;99.90;;;;;;5010071;28;20033;-62
2022/11/12 03:26:02;;;;;;;86.18;45.80;;;3.90;99.90;;;;;;5009837;28;20112;-62
2022/11/12 03:28:27;;;;;;;73.32;43.03;;;3.90;99.90;;;;;;5009503;28;20481;-62
2022/11/12 03:30:57;;;;;;;84.32;44.33;;;3.80;99.90;;;;;;5009943;28;20053;-63
2022/11/12 03:33:23;;;;;;;79.88;43.58;;;3.80;99.90;;;;;;4991990;28;20026;-62
2022/11/12 03:35:48;;;;;;;78.63;45.30;;;3.70;99.90;;;;;;5009749;28;20033;-64
2022/11/12 03:38:14;;;;;;;84.72;44.30;;;3.70;99.90;;;;;;5009253;28;20022;-65
2022/11/12 03:40:40;;;;;;;83.47;44.92;;;3.70;99.90;;;;;;5009541;28;20103;-66
2022/11/12 03:43:05;;;;;;;78.68;45.42;;;3.70;99.90;;;;;;5009805;28;20030;-65
2022/11/12 03:45:31;;;;;;;76.18;42.22;;;3.60;99.90;;;;;;4992021;28;20026;-65
2022/11/12 03:47:57;;;;;;;83.68;47.55;;;3.60;99.90;;;;;;5009506;28;20036;-62
2022/11/12 03:50:26;;;;;;;77.10;44.63;;;3.60;99.90;;;;;;5009620;28;20373;-65
2022/11/12 03:52:55;;;;;;;74.20;43.10;;;3.60;99.90;;;;;;5009815;28;20121;-61
2022/11/12 03:55:22;;;;;;;80.00;42.80;;;3.50;99.90;;;;;;5009978;28;20100;-65
2022/11/12 03:57:50;;;;;;;74.55;41.80;;;3.40;99.90;;;;;;5009647;28;20033;-65
2022/11/12 04:00:17;;;;;;;80.55;43.55;;;3.40;99.90;;;;;;5009515;28;20505;-64
2022/11/12 04:02:42;;;;;;;74.60;44.33;;;3.40;99.90;;;;;;5012636;28;20499;-62
2022/11/12 04:10:41;;;;;;;;;;;3.40;99.90;;;;;;4993844;28;20057;-64
2022/11/12 04:21:49;;;;;;;65.22;34.03;;;3.40;99.90;;;;;;4993770;28;20084;-62
2022/11/12 04:24:05;;;;;;;67.60;37.40;;;3.30;99.90;;;;;;4993434;28;20088;-61
2022/11/12 04:26:31;;;;;;;76.38;40.78;;;3.40;99.90;;;;;;4993261;28;20038;-61
2022/11/12 04:31:42;;;;;;;73.65;40.88;;;3.40;99.90;;;;;;4993614;28;20042;-61
2022/11/12 04:36:51;;;;;;;73.47;38.22;;;3.30;99.90;;;;;;4993643;28;20033;-67
2022/11/12 04:39:17;;;;;;;71.68;37.17;;;3.20;99.90;;;;;;4993289;28;20022;-65
2022/11/12 04:47:11;;;;;;;75.38;43.63;;;3.20;99.90;;;;;;4993141;28;20046;-66
2022/11/12 04:49:36;;;;;;;86.03;48.05;;;3.10;99.90;;;;;;4992995;28;20035;-63
2022/11/12 04:52:05;;;;;;;76.78;44.50;;;3.10;99.90;;;;;;4992781;28;20022;-64
2022/11/12 04:54:32;;;;;;;87.45;47.72;;;3.10;99.90;;;;;;4993007;28;20038;-61
2022/11/12 04:56:58;;;;;;;95.28;50.25;;;3.10;99.90;;;;;;4992867;28;20041;-63
2022/11/12 04:59:23;;;;;;;97.15;57.55;;;3.10;99.90;;;;;;4992541;28;20037;-64
2022/11/12 05:01:49;;;;;;;89.82;49.97;;;3.10;99.90;;;;;;4992822;28;20030;-64
2022/11/12 05:04:15;;;;;;;80.10;43.92;;;3.20;99.90;;;;;;4992617;28;20038;-62
2022/11/12 05:06:53;;;;;;;82.78;43.28;;;3.10;99.90;;;;;;4992623;28;20038;-61
2022/11/12 05:09:27;;;;;;;76.95;40.45;;;2.90;99.90;;;;;;5008751;28;20042;-61
2022/11/12 05:11:56;;;;;;;71.80;37.97;;;2.80;99.90;;;;;;5012057;28;20145;-61
2022/11/12 05:14:23;;;;;;;68.28;36.10;;;2.80;99.90;;;;;;5010771;28;20038;-60
2022/11/12 05:16:50;;;;;;;63.60;36.20;;;2.90;99.90;;;;;;5012030;28;20030;-63
2022/11/12 05:19:16;;;;;;;68.00;36.78;;;2.80;99.90;;;;;;5011991;28;20388;-62
2022/11/12 05:24:26;;;;;;;68.25;39.60;;;2.70;99.90;;;;;;5011735;28;20752;-62
2022/11/12 05:26:52;;;;;;;72.78;40.08;;;2.70;99.90;;;;;;4994174;28;20025;-62
2022/11/12 05:29:18;;;;;;;71.28;38.63;;;2.70;99.90;;;;;;5011452;28;20072;-64
2022/11/12 05:31:44;;;;;;;75.65;40.53;;;2.60;99.90;;;;;;4994279;28;20030;-62
2022/11/12 05:34:10;;;;;;;72.18;40.97;;;2.60;99.90;;;;;;5011937;28;20520;-60
2022/11/12 05:36:36;;;;;;;59.17;35.22;;;2.60;99.90;;;;;;5011559;28;20612;-59
2022/11/12 05:39:02;;;;;;;68.93;38.33;;;2.60;99.90;;;;;;5011142;28;20037;-59
2022/11/12 05:41:28;;;;;;;70.18;38.47;;;2.60;99.90;;;;;;5011571;28;20026;-60
2022/11/12 05:43:53;;;;;;;64.70;36.80;;;2.50;99.90;;;;;;5011555;28;20030;-59
2022/11/12 05:46:19;;;;;;;63.60;35.78;;;2.60;99.90;;;;;;5011516;28;20563;-59
2022/11/12 05:48:45;;;;;;;64.82;35.40;;;2.70;99.90;;;;;;5011303;28;20732;-60
2022/11/12 05:51:12;;;;;;;55.25;31.55;;;2.60;99.90;;;;;;5011833;28;20461;-60
2022/11/12 05:53:38;;;;;;;51.22;27.65;;;2.60;99.90;;;;;;5011146;28;20077;-64
2022/11/12 05:56:05;;;;;;;46.08;25.83;;;2.60;99.90;;;;;;5011192;28;20109;-61
2022/11/12 05:58:31;;;;;;;57.20;28.83;;;2.50;99.90;;;;;;5011253;28;20041;-63
2022/11/12 06:00:58;;;;;;;58.67;33.15;;;2.40;99.90;;;;;;5011146;28;20034;-62
2022/11/12 06:03:24;;;;;;;66.88;34.95;;;2.30;99.90;;;;;;5011105;28;20033;-59
2022/11/12 06:05:50;;;;;;;70.35;38.30;;;2.30;99.90;;;;;;5011061;28;20366;-59
2022/11/12 06:08:16;;;;;;;66.20;35.80;;;2.30;99.90;;;;;;5003084;28;20551;-60
2022/11/12 06:10:46;;;;;;;77.20;40.92;;;2.30;99.90;;;;;;4991010;28;20277;-60
2022/11/12 06:13:12;;;;;;;82.35;45.45;;;2.40;99.90;;;;;;4991321;28;20084;-64
2022/11/12 06:15:37;;;;;;;84.38;47.95;;;2.40;99.90;;;;;;4991193;28;20077;-62
2022/11/12 06:18:03;;;;;;;83.88;47.88;;;2.40;99.90;;;;;;4991215;28;20031;-59
2022/11/12 06:20:29;;;;;;;90.32;50.95;;;2.40;99.90;;;;;;4991004;28;20101;-57
2022/11/12 06:22:56;;;;;;;94.70;54.45;;;2.50;99.90;;;;;;4991224;28;20023;-58
2022/11/12 06:25:22;;;;;;;98.68;54.22;;;2.50;99.90;;;;;;4990883;28;20042;-63
2022/11/12 06:27:48;;;;;;;81.30;48.25;;;2.60;99.90;;;;;;4990949;28;20030;-61
2022/11/12 06:30:13;;;;;;;82.72;50.35;;;2.60;99.90;;;;;;4990843;28;20042;-60
2022/11/12 06:32:39;;;;;;;86.75;52.78;;;2.50;99.90;;;;;;4990988;28;20038;-59
2022/11/12 06:35:05;;;;;;;83.88;49.38;;;2.60;99.90;;;;;;4990727;28;20042;-61
2022/11/12 06:37:31;;;;;;;82.80;47.05;;;2.60;99.90;;;;;;4990923;28;20027;-59
2022/11/12 06:39:56;;;;;;;91.80;49.83;;;2.60;99.90;;;;;;4990779;28;20022;-61
2022/11/12 06:42:22;;;;;;;86.22;50.58;;;2.70;99.90;;;;;;4990813;28;20054;-64
2022/11/12 06:44:48;;;;;;;89.22;51.58;;;2.80;99.90;;;;;;4990723;28;20030;-64
2022/11/12 06:47:14;;;;;;;93.05;52.30;;;2.90;99.90;;;;;;4990813;28;20026;-62
2022/11/12 06:49:40;;;;;;;88.57;52.50;;;2.90;99.90;;;;;;4990428;28;20072;-61
2022/11/12 06:52:05;;;;;;;83.95;49.03;;;2.90;99.90;;;;;;4990461;28;20050;-63
2022/11/12 06:54:31;;;;;;;83.80;47.42;;;2.90;99.90;;;;;;4990770;28;20113;-60
2022/11/12 06:56:56;;;;;;;88.20;52.42;;;3.00;99.90;;;;;;4990599;28;20056;-59
2022/11/12 06:59:22;;;;;;;97.25;56.53;;;3.10;99.90;;;;;;4972904;28;20539;-59
2022/11/12 07:01:48;;;;;;;115.38;66.28;;;3.20;99.90;;;;;;4990704;28;20022;-59
2022/11/12 07:04:13;;;;;;;98.13;57.72;;;3.30;99.90;;;;;;4990434;28;20441;-61
2022/11/12 07:06:39;;;;;;;103.43;56.70;;;3.40;99.90;;;;;;4990519;28;20030;-62
2022/11/12 07:09:05;;;;;;;91.50;54.50;;;3.50;99.90;;;;;;5004163;28;20064;-63
2022/11/12 07:11:31;;;;;;;99.82;54.67;;;3.60;99.90;;;;;;5009925;28;20543;-59
2022/11/12 07:13:59;;;;;;;97.88;57.78;;;3.70;99.90;;;;;;5010221;28;20041;-60
2022/11/12 07:16:25;;;;;;;101.43;56.17;;;3.90;99.90;;;;;;5009969;28;20129;-58
2022/11/12 07:18:51;;;;;;;98.82;55.55;;;4.00;99.90;;;;;;5010081;28;20175;-58
2022/11/12 07:21:18;;;;;;;92.03;50.47;;;4.10;99.90;;;;;;5010212;28;20112;-60
2022/11/12 07:23:45;;;;;;;95.97;52.10;;;4.20;99.90;;;;;;5010327;28;20033;-59
2022/11/12 07:26:17;;;;;;;101.00;54.17;;;4.30;99.90;;;;;;5009695;28;20022;-62
2022/11/12 07:28:44;;;;;;;119.25;64.32;;;4.50;99.90;;;;;;5009746;28;20128;-64
2022/11/12 07:31:12;;;;;;;132.02;66.72;;;4.60;99.90;;;;;;5009595;28;20025;-59
2022/11/12 07:33:38;;;;;;;126.82;69.28;;;4.80;99.90;;;;;;5009676;28;20388;-59
2022/11/12 07:36:08;;;;;;;138.85;72.20;;;4.90;99.90;;;;;;5009950;28;20029;-60
2022/11/12 07:38:37;;;;;;;133.73;70.35;;;5.10;99.90;;;;;;5013786;28;20025;-61
2022/11/12 07:41:02;;;;;;;145.60;73.50;;;5.30;99.90;;;;;;5013666;28;20026;-60
2022/11/12 07:43:29;;;;;;;140.15;73.72;;;5.30;99.90;;;;;;5013580;28;20030;-60
2022/11/12 07:46:07;;;;;;;135.52;70.47;;;5.50;99.90;;;;;;5013687;28;20037;-62
2022/11/12 07:48:33;;;;;;;132.40;71.45;;;5.80;99.90;;;;;;4995702;28;20404;-61
2022/11/12 07:51:08;;;;;;;126.38;67.47;;;6.00;99.90;;;;;;5013600;28;20032;-58
2022/11/12 07:53:34;;;;;;;101.97;57.00;;;6.20;99.90;;;;;;5013435;28;20045;-61
2022/11/12 07:56:03;;;;;;;102.97;59.58;;;6.40;99.90;;;;;;4996008;28;20029;-62
2022/11/12 07:58:30;;;;;;;105.57;59.45;;;6.50;99.90;;;;;;5013556;28;20533;-61
2022/11/12 08:00:56;;;;;;;114.55;63.08;;;6.70;99.90;;;;;;5013490;28;20116;-61
2022/11/12 08:03:22;;;;;;;102.28;58.28;;;6.60;99.90;;;;;;5013739;28;20050;-62
2022/11/12 08:05:49;;;;;;;100.20;57.05;;;6.70;99.90;;;;;;5013610;28;20033;-64
2022/11/12 08:08:15;;;;;;;108.47;62.17;;;6.90;99.90;;;;;;5006672;28;20030;-60
2022/11/12 08:10:40;;;;;;;106.90;62.42;;;7.10;99.90;;;;;;4993425;28;20046;-60
2022/11/12 08:13:06;;;;;;;98.10;58.65;;;7.20;99.90;;;;;;4993680;28;20359;-60
2022/11/12 08:15:32;;;;;;;93.40;50.45;;;7.50;99.90;;;;;;4993492;28;20716;-61
2022/11/12 08:17:58;;;;;;;83.22;48.75;;;7.70;99.90;;;;;;4993426;28;20034;-61
2022/11/12 08:20:23;;;;;;;73.22;46.13;;;8.00;99.90;;;;;;4993486;28;20030;-63
2022/11/12 08:22:49;;;;;;;77.18;48.42;;;8.00;99.90;;;;;;4975820;28;20042;-62
2022/11/12 08:25:15;;;;;;;75.97;44.17;;;8.30;99.90;;;;;;4993444;28;20022;-63
2022/11/12 08:27:41;;;;;;;66.05;40.10;;;8.80;99.90;;;;;;4993128;28;20030;-62
2022/11/12 08:30:07;;;;;;;64.05;38.40;;;9.30;99.90;;;;;;4993315;28;20038;-63
2022/11/12 08:32:33;;;;;;;55.55;35.22;;;9.70;99.90;;;;;;4975544;28;20026;-60
2022/11/12 08:34:59;;;;;;;56.13;32.63;;;9.70;99.90;;;;;;4993114;28;20536;-61
2022/11/12 08:37:24;;;;;;;49.58;31.90;;;9.40;99.90;;;;;;4993080;28;20058;-62
2022/11/12 08:39:51;;;;;;;47.70;29.73;;;9.90;99.90;;;;;;4993053;28;20595;-61
2022/11/12 08:42:17;;;;;;;55.23;31.33;;;9.30;99.90;;;;;;4993188;28;20022;-58
2022/11/12 08:44:42;;;;;;;49.17;28.85;;;10.00;99.90;;;;;;4993044;28;20045;-61
2022/11/12 08:47:08;;;;;;;52.58;30.40;;;10.00;99.90;;;;;;4993174;28;20062;-62
2022/11/12 08:49:34;;;;;;;48.50;27.88;;;9.90;99.90;;;;;;4992753;28;20115;-62
2022/11/12 08:51:59;;;;;;;42.90;26.77;;;10.20;99.90;;;;;;4975576;28;20066;-62
2022/11/12 08:54:25;;;;;;;41.88;25.88;;;10.20;99.90;;;;;;4993027;28;20018;-62
2022/11/12 08:56:50;;;;;;;45.67;26.95;;;10.80;99.90;;;;;;4992892;28;20034;-62
2022/11/12 08:59:16;;;;;;;37.92;24.75;;;10.50;99.90;;;;;;4993118;28;20030;-61
2022/11/12 09:01:42;;;;;;;40.70;24.20;;;11.50;99.90;;;;;;4975346;28;20038;-60
2022/11/12 09:04:08;;;;;;;38.13;22.27;;;13.00;99.90;;;;;;4959153;28;20027;-60
2022/11/12 09:06:33;;;;;;;39.67;22.20;;;13.40;99.90;;;;;;4992621;28;20475;-61
2022/11/12 09:08:59;;;;;;;36.58;21.25;;;13.90;99.90;;;;;;5004963;28;20042;-61
2022/11/12 09:11:25;;;;;;;39.95;22.92;;;14.30;99.90;;;;;;5012096;28;20455;-60
2022/11/12 09:13:53;;;;;;;32.75;20.77;;;15.10;99.90;;;;;;5012258;28;20034;-61
2022/11/12 09:16:23;;;;;;;40.90;24.25;;;15.00;99.90;;;;;;5011881;28;20026;-61
2022/11/12 09:18:52;;;;;;;35.63;21.05;;;15.30;99.90;;;;;;4994423;28;20033;-60
2022/11/12 09:21:23;;;;;;;38.63;22.00;;;15.70;98.80;;;;;;5012460;28;20484;-60
2022/11/12 09:23:49;;;;;;;40.20;23.15;;;15.40;97.40;;;;;;5011325;28;20412;-63
2022/11/12 09:26:15;;;;;;;45.40;24.85;;;15.20;98.10;;;;;;4994337;28;20485;-61
2022/11/12 09:28:40;;;;;;;41.42;23.25;;;15.20;96.10;;;;;;5011909;28;20069;-61
2022/11/12 09:31:07;;;;;;;41.92;24.13;;;15.20;96.70;;;;;;5011885;28;20037;-62
2022/11/12 09:33:33;;;;;;;36.90;23.50;;;13.60;98.50;;;;;;5011893;28;20028;-62
2022/11/12 09:36:03;;;;;;;36.38;21.20;;;13.30;99.10;;;;;;5011465;28;20034;-60
2022/11/12 09:38:29;;;;;;;30.60;18.92;;;14.60;99.70;;;;;;5011149;28;20021;-62
2022/11/12 09:41:02;;;;;;;33.28;19.10;;;15.10;97.60;;;;;;5011363;28;20448;-60
2022/11/12 09:43:32;;;;;;;35.45;20.48;;;15.70;95.90;;;;;;5011348;28;20076;-61
2022/11/12 09:46:06;;;;;;;29.02;18.55;;;16.40;98.60;;;;;;5011422;28;20025;-61
2022/11/12 09:48:37;;;;;;;30.10;18.88;;;15.70;95.30;;;;;;5010941;28;20037;-59
2022/11/12 09:51:10;;;;;;;30.55;18.52;;;16.00;97.20;;;;;;5011082;28;20026;-61
2022/11/12 09:53:53;;;;;;;32.65;19.73;;;16.60;95.40;;;;;;5009905;28;20040;-62
2022/11/12 09:56:20;;;;;;;29.63;17.80;;;15.10;95.00;;;;;;5002041;28;20036;-60
2022/11/12 09:58:47;;;;;;;27.63;17.05;;;16.20;96.60;;;;;;5007873;28;20104;-61
2022/11/12 10:01:15;;;;;;;28.63;17.33;;;16.70;94.30;;;;;;5010849;28;20497;-61
2022/11/12 10:04:04;;;;;;;23.38;15.35;;;16.10;95.00;;;;;;5011161;28;20037;-60
2022/11/12 10:06:42;;;;;;;27.02;15.35;;;17.20;94.10;;;;;;5011508;28;20037;-61
2022/11/12 10:09:16;;;;;;;25.48;15.50;;;17.30;92.10;;;;;;4997681;28;20113;-61
2022/11/12 10:18:23;;;;;;;25.63;15.40;;;16.20;93.70;;;;;;4950276;28;20040;-65
2022/11/12 10:20:54;;;;;;;24.15;14.43;;;15.20;93.80;;;;;;4973421;28;20026;-62
2022/11/12 10:23:40;;;;;;;24.60;15.05;;;15.30;94.80;;;;;;4990731;28;20027;-63
2022/11/12 10:26:13;;;;;;;23.38;13.38;;;15.50;98.20;;;;;;5010405;28;20018;-63
2022/11/12 10:29:09;;;;;;;25.58;13.63;;;14.50;96.20;;;;;;5007949;28;20061;-64
2022/11/12 10:31:34;;;;;;;20.20;11.27;;;14.80;99.80;;;;;;5010336;28;20520;-64
2022/11/12 10:34:13;;;;;;;21.77;11.82;;;16.30;98.20;;;;;;5008642;28;20034;-63
2022/11/12 10:36:45;;;;;;;26.60;15.00;;;17.20;95.60;;;;;;5008410;28;20033;-63
2022/11/12 10:39:34;;;;;;;25.45;14.05;;;17.30;92.70;;;;;;4991021;28;20029;-60
2022/11/12 10:42:11;;;;;;;21.15;13.15;;;16.80;92.40;;;;;;5008846;28;20029;-64
2022/11/12 10:44:38;;;;;;;21.40;12.93;;;16.40;93.20;;;;;;5009512;28;20026;-65
2022/11/12 10:47:26;;;;;;;20.25;12.30;;;17.00;92.50;;;;;;4994034;28;20026;-62
2022/11/12 10:50:03;;;;;;;23.52;12.98;;;17.50;93.40;;;;;;4994759;28;20061;-62
2022/11/12 10:52:29;;;;;;;22.10;12.50;;;17.00;91.40;;;;;;5000276;28;20049;-61
2022/11/12 10:55:18;;;;;;;20.80;12.07;;;16.80;91.50;;;;;;4999937;28;20061;-60
2022/11/12 10:57:44;;;;;;;19.02;10.60;;;16.40;94.10;;;;;;4999965;28;20096;-62
2022/11/12 11:00:12;;;;;;;20.55;12.40;;;15.30;94.20;;;;;;4998210;28;20404;-61
2022/11/12 11:02:49;;;;;;;26.30;12.30;;;15.50;95.70;;;;;;4998682;28;20029;-63
2022/11/12 11:05:36;;;;;;;20.33;13.75;;;15.80;95.10;;;;;;5000061;28;20045;-65
2022/11/12 11:08:04;;;;;;;25.10;13.57;;;16.00;94.10;;;;;;5006957;28;20034;-62
2022/11/12 11:10:35;;;;;;;23.10;13.27;;;15.90;95.60;;;;;;5008850;28;20034;-62
2022/11/12 11:13:21;;;;;;;19.13;11.98;;;16.20;94.50;;;;;;5008583;28;20037;-61
2022/11/12 11:16:09;;;;;;;21.75;10.02;;;15.80;95.30;;;;;;5007439;28;20025;-64
2022/11/12 11:18:37;;;;;;;18.38;9.65;;;15.70;94.80;;;;;;5008294;28;20022;-64
2022/11/12 11:21:12;;;;;;;19.60;8.95;;;15.50;95.00;;;;;;5005706;28;20042;-62
2022/11/12 11:23:43;;;;;;;16.67;8.20;;;15.70;94.50;;;;;;5007984;28;20022;-62
2022/11/12 11:26:15;;;;;;;17.70;8.52;;;16.30;95.20;;;;;;5008425;28;20028;-62
2022/11/12 11:29:37;;;;;;;17.73;8.50;;;16.90;94.00;;;;;;5007975;28;20038;-62
2022/11/12 11:32:29;;;;;;;12.90;7.75;;;16.80;92.20;;;;;;4899069;29;20068;-63
2022/11/12 11:35:25;;;;;;;14.13;7.07;;;17.40;91.90;;;;;;5007276;28;20026;-65
2022/11/12 11:38:04;;;;;;;13.25;7.60;;;17.50;91.90;;;;;;5007172;28;20022;-62
2022/11/12 11:40:33;;;;;;;15.00;6.45;;;17.70;91.30;;;;;;5006671;28;20022;-63
2022/11/12 11:43:10;;;;;;;12.02;5.95;;;18.10;91.10;;;;;;4978330;28;20026;-63
2022/11/12 11:46:13;;;;;;;18.63;6.60;;;18.20;90.90;;;;;;5009191;28;20026;-64
2022/11/12 11:49:16;;;;;;;15.15;6.57;;;18.10;90.00;;;;;;4996285;28;20375;-64
2022/11/12 11:52:02;;;;;;;16.02;7.28;;;18.00;89.90;;;;;;4988873;28;20026;-64
2022/11/12 11:55:02;;;;;;;15.48;7.13;;;17.90;88.10;;;;;;5006463;28;20064;-65
2022/11/12 11:57:34;;;;;;;11.18;5.93;;;17.60;89.00;;;;;;5006844;28;20026;-65
2022/11/12 12:00:09;;;;;;;12.80;7.38;;;17.80;90.20;;;;;;5005673;28;20045;-63
2022/11/12 12:03:12;;;;;;;13.30;6.55;;;18.00;90.30;;;;;;5008073;28;20101;-63
2022/11/12 12:05:43;;;;;;;11.77;6.10;;;18.00;89.00;;;;;;5005563;28;20022;-62
2022/11/12 12:08:23;;;;;;;12.27;5.80;;;17.50;90.10;;;;;;5009105;28;20470;-65
2022/11/12 12:10:51;;;;;;;15.45;6.20;;;17.60;89.00;;;;;;5009167;28;20516;-65
2022/11/12 12:13:28;;;;;;;10.43;5.50;;;17.50;88.70;;;;;;5008468;28;20049;-63
2022/11/12 12:15:56;;;;;;;12.40;5.93;;;17.80;88.40;;;;;;5008524;28;20030;-64
2022/11/12 12:18:35;;;;;;;13.65;6.00;;;18.20;86.90;;;;;;5008562;28;20022;-64
2022/11/12 12:21:16;;;;;;;8.60;5.10;;;19.20;81.80;;;;;;5007763;28;20034;-63
2022/11/12 12:23:44;;;;;;;18.63;10.32;;;21.80;69.70;;;;;;4991261;28;20034;-64
2022/11/12 12:26:18;;;;;;;16.52;9.27;;;22.60;64.00;;;;;;4992276;28;20037;-63
2022/11/12 12:29:11;;;;;;;13.80;6.10;;;23.00;62.30;;;;;;4992408;28;20038;-65
2022/11/12 12:31:43;;;;;;;11.82;4.88;;;22.50;61.20;;;;;;4992098;28;20034;-62
2022/11/12 12:34:24;;;;;;;11.25;5.78;;;21.20;63.70;;;;;;4991589;28;20023;-66
2022/11/12 12:36:53;;;;;;;9.73;5.68;;;20.40;66.60;;;;;;4992149;28;20038;-64
2022/11/12 12:39:25;;;;;;;11.43;4.85;;;19.40;69.30;;;;;;4992065;28;20030;-65
2022/11/12 12:42:04;;;;;;;12.63;4.88;;;19.40;72.70;;;;;;5002317;28;20030;-64
2022/11/12 12:47:23;;;;;;;8.77;3.65;;;18.60;71.90;;;;;;5010770;28;20060;-65
2022/11/12 12:49:50;;;;;;;13.45;5.03;;;18.20;73.80;;;;;;5009753;28;20034;-66
2022/11/12 12:52:16;;;;;;;15.55;5.72;;;18.20;77.40;;;;;;4991595;28;20685;-64
2022/11/12 12:54:50;;;;;;;10.13;4.57;;;18.30;77.30;;;;;;5010242;28;20069;-66
2022/11/12 12:57:37;;;;;;;11.18;3.95;;;18.30;77.70;;;;;;5010393;28;20145;-63
2022/11/12 13:00:33;;;;;;;9.23;4.32;;;18.20;77.20;;;;;;5011050;28;20076;-65
2022/11/12 13:02:59;;;;;;;10.23;4.53;;;18.10;75.60;;;;;;5011070;28;20478;-64
2022/11/12 13:05:35;;;;;;;7.20;3.63;;;18.10;74.00;;;;;;5011559;28;20028;-65
2022/11/12 13:08:12;;;;;;;8.65;4.30;;;18.10;74.70;;;;;;4994242;28;20088;-66
2022/11/12 13:10:40;;;;;;;8.98;3.95;;;18.10;75.30;;;;;;5011777;28;20057;-62
2022/11/12 13:13:18;;;;;;;10.75;4.07;;;17.60;76.50;;;;;;5012124;28;20080;-66
2022/11/12 13:15:45;;;;;;;;;;;17.70;77.10;;;;;;5012145;28;20033;-66
2022/11/12 13:18:30;;;;;;;10.52;5.47;;;17.80;77.40;;;;;;5011784;28;19912;-66
2022/11/12 13:21:11;;;;;;;11.65;4.78;;;17.80;78.30;;;;;;5011437;28;20057;-67
2022/11/12 13:26:46;;;;;;;10.05;4.88;;;17.50;76.00;;;;;;5011152;28;20041;-62
2022/11/12 13:29:18;;;;;;;;;;;17.50;76.60;;;;;;5012312;28;20549;-66